createdAt,value
2023-11-15T00:01:40.903Z,100880.34
2023-11-15T00:04:09.907Z,100877.31
2023-11-15T00:06:37.098Z,100879.69
2023-11-15T00:09:06.393Z,100883.69
2023-11-15T00:11:35.294Z,100883.91
2023-11-15T00:14:02.696Z,100895.22
2023-11-15T00:16:30.212Z,100898.63
2023-11-15T00:18:57.269Z,100908.09
2023-11-15T00:21:24.659Z,100902.13
2023-11-15T00:23:51.684Z,100907.00
2023-11-15T00:26:20.943Z,100906.56
2023-11-15T00:28:48.256Z,100908.88
2023-11-15T00:31:15.444Z,100913.13
2023-11-15T00:33:42.552Z,100917.81
2023-11-15T00:36:12.804Z,100910.25
2023-11-15T00:38:40.358Z,100921.69
2023-11-15T00:41:09.497Z,100924.63
2023-11-15T00:43:36.540Z,100924.94
2023-11-15T00:46:04.000Z,100928.56
2023-11-15T00:48:31.610Z,100933.00
2023-11-15T00:50:58.669Z,100943.22
2023-11-15T00:53:25.937Z,100947.53
2023-11-15T00:55:53.015Z,100947.66
2023-11-15T00:58:19.989Z,100951.59
2023-11-15T01:00:49.120Z,100967.41
2023-11-15T01:03:27.206Z,100966.50
2023-11-15T01:05:56.377Z,100969.00
2023-11-15T01:08:26.366Z,100971.56
2023-11-15T01:10:55.649Z,100983.47
2023-11-15T01:13:24.470Z,100988.19
2023-11-15T01:15:52.613Z,100990.41
2023-11-15T01:18:22.333Z,100987.88
2023-11-15T01:20:51.048Z,100994.84
2023-11-15T01:23:19.018Z,100991.59
2023-11-15T01:25:46.059Z,101001.16
2023-11-15T01:28:13.441Z,101001.25
2023-11-15T01:30:40.417Z,101002.97
2023-11-15T01:33:07.447Z,101003.69
2023-11-15T01:35:34.569Z,101011.81
2023-11-15T01:38:01.903Z,101002.66
2023-11-15T01:40:34.999Z,101009.66
2023-11-15T01:43:02.734Z,101009.91
2023-11-15T01:45:29.775Z,101020.25
2023-11-15T01:47:57.508Z,101008.06
2023-11-15T01:50:25.145Z,101008.53
2023-11-15T01:52:52.268Z,101027.91
2023-11-15T01:55:22.307Z,101023.91
2023-11-15T01:57:50.336Z,101031.78
2023-11-15T02:00:18.045Z,101019.56
2023-11-15T02:02:45.180Z,101035.91
2023-11-15T02:05:14.430Z,101033.94
2023-11-15T02:07:43.573Z,101037.41
2023-11-15T02:10:13.833Z,101048.44
2023-11-15T02:12:40.930Z,101039.44
2023-11-15T02:15:09.007Z,101044.97
2023-11-15T02:17:36.162Z,101046.97
2023-11-15T02:20:07.309Z,101051.81
2023-11-15T02:22:35.650Z,101042.56
2023-11-15T02:25:02.637Z,101048.56
2023-11-15T02:27:29.652Z,101041.31
2023-11-15T02:29:56.690Z,101051.22
2023-11-15T02:32:23.758Z,101051.47
2023-11-15T02:34:51.081Z,101062.31
2023-11-15T02:37:18.179Z,101056.75
2023-11-15T02:39:45.182Z,101063.31
2023-11-15T02:42:12.201Z,101066.09
2023-11-15T02:44:39.230Z,101054.59
2023-11-15T02:47:06.630Z,101057.69
2023-11-15T02:49:33.718Z,101068.34
2023-11-15T02:52:02.230Z,101072.19
2023-11-15T02:54:29.816Z,101069.22
2023-11-15T02:56:56.923Z,101068.94
2023-11-15T02:59:23.957Z,101064.75
2023-11-15T03:01:52.656Z,101073.47
2023-11-15T03:04:20.788Z,101074.28
2023-11-15T03:06:48.446Z,101071.97
2023-11-15T03:09:15.526Z,101070.25
2023-11-15T03:11:42.610Z,101076.09
2023-11-15T03:14:09.770Z,101079.06
2023-11-15T03:16:36.913Z,101079.81
2023-11-15T03:19:03.913Z,101077.69
2023-11-15T03:21:31.093Z,101069.56
2023-11-15T03:23:58.290Z,101077.75
2023-11-15T03:26:25.386Z,101080.72
2023-11-15T03:28:52.442Z,101078.50
2023-11-15T03:31:19.470Z,101084.06
2023-11-15T03:33:48.744Z,101084.38
2023-11-15T03:36:17.073Z,101086.06
2023-11-15T03:38:44.572Z,101088.56
2023-11-15T03:41:11.961Z,101092.53
2023-11-15T03:43:42.587Z,101093.63
2023-11-15T03:46:09.677Z,101096.97
2023-11-15T03:48:36.941Z,101103.63
2023-11-15T03:51:04.598Z,101106.81
2023-11-15T03:53:32.088Z,101105.78
2023-11-15T03:55:59.132Z,101110.69
2023-11-15T03:58:26.304Z,101102.53
2023-11-15T04:00:58.039Z,101106.34
2023-11-15T04:03:25.278Z,101119.81
2023-11-15T04:05:52.491Z,101113.44
2023-11-15T04:08:19.831Z,101108.19
2023-11-15T04:10:46.990Z,101115.00
2023-11-15T04:13:15.822Z,101110.63
2023-11-15T04:15:43.071Z,101110.25
2023-11-15T04:18:11.197Z,101123.94
2023-11-15T04:20:38.291Z,101117.66
2023-11-15T04:23:05.694Z,101121.75
2023-11-15T04:25:32.783Z,101129.56
2023-11-15T04:28:01.990Z,101127.34
2023-11-15T04:30:29.268Z,101128.16
2023-11-15T04:32:56.405Z,101131.19
2023-11-15T04:35:23.576Z,101141.66
2023-11-15T04:37:50.650Z,101142.16
2023-11-15T04:40:19.320Z,101148.16
2023-11-15T04:42:46.489Z,101149.88
2023-11-15T04:45:13.797Z,101140.59
2023-11-15T04:47:41.109Z,101148.44
2023-11-15T04:50:09.649Z,101149.88
2023-11-15T04:52:36.803Z,101152.53
2023-11-15T04:55:04.122Z,101165.19
2023-11-15T04:57:31.166Z,101159.19
2023-11-15T04:59:58.299Z,101155.91
2023-11-15T05:02:28.371Z,101161.75
2023-11-15T05:04:56.385Z,101160.19
2023-11-15T05:07:26.345Z,101165.97
2023-11-15T05:09:53.836Z,101164.91
2023-11-15T05:12:21.022Z,101166.00
2023-11-15T05:14:48.152Z,101163.13
2023-11-15T05:17:17.435Z,101163.19
2023-11-15T05:19:44.503Z,101167.75
2023-11-15T05:22:11.622Z,101182.06
2023-11-15T05:24:39.163Z,101175.78
2023-11-15T05:27:06.890Z,101170.88
2023-11-15T05:29:34.189Z,101171.06
2023-11-15T05:32:01.319Z,101178.53
2023-11-15T05:34:28.951Z,101183.53
2023-11-15T05:36:56.195Z,101185.19
2023-11-15T05:39:23.604Z,101195.97
2023-11-15T05:41:51.151Z,101191.19
2023-11-15T05:44:18.326Z,101194.88
2023-11-15T05:46:45.354Z,101183.81
2023-11-15T05:49:12.420Z,101189.56
2023-11-15T05:51:41.523Z,101195.94
2023-11-15T05:54:08.732Z,101203.06
2023-11-15T05:56:45.769Z,101201.03
2023-11-15T05:59:12.844Z,101193.09
2023-11-15T06:01:40.081Z,101194.56
2023-11-15T06:04:09.172Z,101192.56
2023-11-15T06:06:36.578Z,101196.09
2023-11-15T06:09:06.130Z,101201.94
2023-11-15T06:11:34.037Z,101198.06
2023-11-15T06:14:01.164Z,101201.09
2023-11-15T06:16:30.447Z,101218.72
2023-11-15T06:19:03.436Z,101210.22
2023-11-15T06:21:30.490Z,101214.09
2023-11-15T06:23:58.008Z,101221.38
2023-11-15T06:26:25.213Z,101207.81
2023-11-15T06:28:52.793Z,101218.81
2023-11-15T06:31:24.139Z,101217.56
2023-11-15T06:33:53.882Z,101214.38
2023-11-15T06:36:21.911Z,101217.97
2023-11-15T06:38:49.026Z,101225.94
2023-11-15T06:41:16.610Z,101228.84
2023-11-15T06:43:43.719Z,101231.25
2023-11-15T06:46:17.384Z,101236.41
2023-11-15T06:48:45.314Z,101237.53
2023-11-15T06:51:13.436Z,101237.91
2023-11-15T06:53:42.839Z,101241.81
2023-11-15T06:56:12.648Z,101234.91
2023-11-15T06:58:39.687Z,101235.53
2023-11-15T07:01:08.467Z,101239.88
2023-11-15T07:03:35.778Z,101252.38
2023-11-15T07:06:03.233Z,101237.56
2023-11-15T07:08:33.090Z,101256.72
2023-11-15T07:11:02.189Z,101252.63
2023-11-15T07:13:32.344Z,101260.63
2023-11-15T07:16:03.042Z,101260.22
2023-11-15T07:20:58.072Z,101264.84
2023-11-15T07:23:25.154Z,101271.88
2023-11-15T07:25:52.228Z,101282.34
2023-11-15T07:28:21.031Z,101283.59
2023-11-15T07:30:49.740Z,101286.47
2023-11-15T07:33:16.828Z,101292.72
2023-11-15T07:35:46.441Z,101292.88
2023-11-15T07:38:14.806Z,101304.19
2023-11-15T07:40:43.029Z,101298.03
2023-11-15T07:43:11.867Z,101297.13
2023-11-15T07:45:39.932Z,101304.88
2023-11-15T07:48:07.873Z,101302.97
2023-11-15T07:50:36.772Z,101304.75
2023-11-15T07:53:04.509Z,101312.47
2023-11-15T07:55:31.672Z,101310.84
2023-11-15T07:57:58.793Z,101316.16
2023-11-15T08:00:25.980Z,101313.94
2023-11-15T08:02:57.022Z,101316.94
2023-11-15T08:05:27.820Z,101315.75
2023-11-15T08:07:55.938Z,101322.50
2023-11-15T08:10:24.462Z,101323.66
2023-11-15T08:12:51.603Z,101328.44
2023-11-15T08:15:18.818Z,101325.94
2023-11-15T08:17:47.780Z,101325.28
2023-11-15T08:20:16.177Z,101329.28
2023-11-15T08:22:43.396Z,101330.75
2023-11-15T08:25:11.247Z,101329.03
2023-11-15T08:27:39.596Z,101324.31
2023-11-15T08:30:18.409Z,101328.44
2023-11-15T08:32:47.205Z,101332.56
2023-11-15T08:35:16.731Z,101332.94
2023-11-15T08:37:44.706Z,101330.28
2023-11-15T08:40:22.889Z,101337.28
2023-11-15T08:42:56.520Z,101337.06
2023-11-15T08:45:23.775Z,101355.75
2023-11-15T08:47:51.786Z,101345.78
2023-11-15T08:50:21.522Z,101357.22
2023-11-15T08:52:48.681Z,101352.06
2023-11-15T08:55:15.794Z,101349.22
2023-11-15T08:57:43.724Z,101368.66
2023-11-15T09:00:16.913Z,101361.56
2023-11-15T09:02:49.725Z,101353.75
2023-11-15T09:05:20.844Z,101368.88
2023-11-15T09:07:48.822Z,101374.56
2023-11-15T09:10:16.020Z,101375.03
2023-11-15T09:12:46.050Z,101364.72
2023-11-15T09:15:13.760Z,101359.19
2023-11-15T09:17:47.946Z,101360.59
2023-11-15T09:20:27.788Z,101365.25
2023-11-15T09:22:55.790Z,101370.06
2023-11-15T09:25:25.274Z,101362.56
2023-11-15T09:27:55.618Z,101367.56
2023-11-15T09:30:24.540Z,101376.41
2023-11-15T09:32:52.007Z,101380.47
2023-11-15T09:35:22.981Z,101376.72
2023-11-15T09:37:51.496Z,101379.03
2023-11-15T09:40:20.085Z,101377.81
2023-11-15T09:42:47.521Z,101385.72
2023-11-15T09:45:20.663Z,101385.63
2023-11-15T09:47:49.640Z,101372.41
2023-11-15T09:50:25.247Z,101388.38
2023-11-15T09:52:56.641Z,101399.38
2023-11-15T09:55:26.193Z,101401.03
2023-11-15T09:57:54.561Z,101390.81
2023-11-15T10:00:24.043Z,101397.47
2023-11-15T10:02:54.085Z,101404.69
2023-11-15T10:05:30.606Z,101394.69
2023-11-15T10:08:19.955Z,101397.94
2023-11-15T10:10:51.226Z,101398.09
2023-11-15T10:13:22.323Z,101397.94
2023-11-15T10:15:49.556Z,101394.84
2023-11-15T10:18:30.795Z,101401.13
2023-11-15T10:21:08.671Z,101403.75
2023-11-15T10:23:38.381Z,101392.78
2023-11-15T10:26:07.290Z,101409.69
2023-11-15T10:28:37.982Z,101402.03
2023-11-15T10:31:17.953Z,101395.19
2023-11-15T10:33:52.172Z,101395.16
2023-11-15T10:36:23.566Z,101397.88
2023-11-15T10:38:56.803Z,101394.00
2023-11-15T10:41:34.134Z,101392.84
2023-11-15T10:44:03.882Z,101384.06
2023-11-15T10:46:31.980Z,101390.09
2023-11-15T10:49:01.520Z,101384.97
2023-11-15T10:51:45.430Z,101391.03
2023-11-15T10:54:14.843Z,101378.72
2023-11-15T10:56:43.381Z,101388.09
2023-11-15T10:59:11.879Z,101395.44
2023-11-15T11:01:39.496Z,101391.13
2023-11-15T11:04:12.081Z,101374.03
2023-11-15T11:07:12.104Z,101378.44
2023-11-15T11:10:00.279Z,101388.53
2023-11-15T11:12:29.814Z,101380.91
2023-11-15T11:15:33.853Z,101388.03
2023-11-15T11:18:17.338Z,101383.84
2023-11-15T11:21:03.089Z,101382.41
2023-11-15T11:23:35.364Z,101378.25
2023-11-15T11:26:42.843Z,101383.97
2023-11-15T11:29:12.862Z,101386.00
2023-11-15T11:31:40.002Z,101384.88
2023-11-15T11:34:18.119Z,101388.28
2023-11-15T11:36:59.694Z,101389.72
2023-11-15T11:39:45.771Z,101389.44
2023-11-15T11:42:29.053Z,101386.41
2023-11-15T11:44:56.665Z,101391.94
2023-11-15T11:47:24.731Z,101384.66
2023-11-15T11:49:53.562Z,101372.16
2023-11-15T11:52:21.332Z,101373.41
2023-11-15T11:54:53.235Z,101366.78
2023-11-15T11:57:25.776Z,101379.34
2023-11-15T12:00:05.831Z,101359.22
2023-11-15T12:02:37.704Z,101371.16
2023-11-15T12:05:06.786Z,101367.19
2023-11-15T12:07:34.109Z,101373.53
2023-11-15T12:10:05.699Z,101383.53
2023-11-15T12:12:33.312Z,101386.94
2023-11-15T12:15:06.006Z,101382.50
2023-11-15T12:17:43.257Z,101391.28
2023-11-15T12:20:20.570Z,101387.13
2023-11-15T12:22:49.398Z,101392.81
2023-11-15T12:25:17.200Z,101397.97
2023-11-15T12:27:45.322Z,101397.16
2023-11-15T12:30:12.950Z,101400.03
2023-11-15T12:32:43.123Z,101383.84
2023-11-15T12:35:15.041Z,101386.38
2023-11-15T12:37:42.998Z,101394.28
2023-11-15T12:40:23.940Z,101390.13
2023-11-15T12:42:57.742Z,101403.19
2023-11-15T12:45:36.973Z,101400.22
2023-11-15T12:48:11.555Z,101402.03
2023-11-15T12:50:46.177Z,101406.41
2023-11-15T12:53:22.257Z,101400.66
2023-11-15T12:55:56.482Z,101394.34
2023-11-15T12:58:43.378Z,101398.28
2023-11-15T13:01:18.378Z,101403.84
2023-11-15T13:03:46.888Z,101400.34
2023-11-15T13:06:26.520Z,101401.97
2023-11-15T13:08:56.481Z,101398.81
2023-11-15T13:11:27.481Z,101395.38
2023-11-15T13:13:55.047Z,101394.09
2023-11-15T13:16:25.414Z,101401.28
2023-11-15T13:18:52.610Z,101390.31
2023-11-15T13:21:24.651Z,101399.00
2023-11-15T13:23:56.867Z,101406.13
2023-11-15T13:26:25.645Z,101404.03
2023-11-15T13:28:54.171Z,101407.53
2023-11-15T13:31:25.513Z,101413.59
2023-11-15T13:33:59.334Z,101399.72
2023-11-15T13:36:28.724Z,101417.19
2023-11-15T13:38:55.813Z,101408.44
2023-11-15T13:41:28.759Z,101420.34
2023-11-15T13:43:55.972Z,101408.34
2023-11-15T13:46:24.647Z,101419.75
2023-11-15T13:48:53.864Z,101419.38
2023-11-15T13:51:22.633Z,101422.69
2023-11-15T13:53:49.851Z,101429.44
2023-11-15T13:56:16.992Z,101421.75
2023-11-15T13:58:44.053Z,101413.50
2023-11-15T14:01:12.696Z,101431.91
2023-11-15T14:03:40.304Z,101431.47
2023-11-15T14:06:08.746Z,101430.94
2023-11-15T14:08:51.245Z,101429.88
2023-11-15T14:11:25.790Z,101429.00
2023-11-15T14:13:52.875Z,101433.31
2023-11-15T14:16:21.955Z,101426.97
2023-11-15T14:18:51.347Z,101424.59
2023-11-15T14:21:18.844Z,101437.47
2023-11-15T14:23:46.025Z,101426.75
2023-11-15T14:26:15.573Z,101440.44
2023-11-15T14:28:46.328Z,101443.66
2023-11-15T14:31:19.133Z,101444.78
2023-11-15T14:33:46.417Z,101447.38
2023-11-15T14:36:14.372Z,101444.66
2023-11-15T14:38:41.535Z,101451.72
2023-11-15T14:41:08.704Z,101447.38
2023-11-15T14:43:35.732Z,101448.66
2023-11-15T14:46:03.722Z,101447.16
2023-11-15T14:48:31.366Z,101458.03
2023-11-15T14:50:58.889Z,101453.56
2023-11-15T14:53:25.953Z,101449.34
2023-11-15T14:55:53.356Z,101458.00
2023-11-15T14:58:20.642Z,101456.66
2023-11-15T15:00:47.919Z,101455.88
2023-11-15T15:03:16.069Z,101455.00
2023-11-15T15:05:43.506Z,101454.25
2023-11-15T15:08:14.475Z,101459.34
2023-11-15T15:10:42.708Z,101463.81
2023-11-15T15:13:10.778Z,101466.16
2023-11-15T15:15:39.943Z,101480.13
2023-11-15T15:18:13.517Z,101471.41
2023-11-15T15:20:46.060Z,101469.31
2023-11-15T15:23:14.060Z,101474.84
2023-11-15T15:25:43.553Z,101473.59
2023-11-15T15:28:11.832Z,101476.59
2023-11-15T15:30:38.986Z,101482.16
2023-11-15T15:33:08.516Z,101491.28
2023-11-15T15:35:36.153Z,101471.34
2023-11-15T15:38:03.660Z,101475.25
2023-11-15T15:40:38.240Z,101479.66
2023-11-15T15:43:05.397Z,101486.13
2023-11-15T15:45:32.489Z,101481.00
2023-11-15T15:48:00.520Z,101497.63
2023-11-15T15:50:28.170Z,101484.72
2023-11-15T15:52:56.184Z,101501.44
2023-11-15T15:55:23.570Z,101512.97
2023-11-15T15:57:51.027Z,101506.53
2023-11-15T16:00:18.780Z,101514.53
2023-11-15T16:02:48.029Z,101509.56
2023-11-15T16:05:17.783Z,101522.88
2023-11-15T16:07:45.823Z,101518.66
2023-11-15T16:10:13.906Z,101507.34
2023-11-15T16:12:41.083Z,101513.34
2023-11-15T16:15:14.423Z,101504.53
2023-11-15T16:17:41.680Z,101491.19
2023-11-15T16:20:11.864Z,101496.69
2023-11-15T16:22:39.087Z,101491.94
2023-11-15T16:25:07.720Z,101507.75
2023-11-15T16:27:37.529Z,101501.44
2023-11-15T16:30:06.784Z,101513.16
2023-11-15T16:32:36.887Z,101517.72
2023-11-15T16:35:06.567Z,101514.72
2023-11-15T16:37:36.858Z,101526.34
2023-11-15T16:40:07.050Z,101529.44
2023-11-15T16:42:34.584Z,101526.41
2023-11-15T16:45:02.261Z,101533.81
2023-11-15T16:47:30.126Z,101516.56
2023-11-15T16:49:59.098Z,101521.50
2023-11-15T16:52:26.329Z,101534.63
2023-11-15T16:54:53.473Z,101537.84
2023-11-15T16:57:20.618Z,101544.84
2023-11-15T16:59:50.265Z,101539.31
2023-11-15T17:02:18.631Z,101543.31
2023-11-15T17:04:47.133Z,101536.94
2023-11-15T17:07:14.126Z,101550.56
2023-11-15T17:09:42.279Z,101550.38
2023-11-15T17:12:09.732Z,101538.72
2023-11-15T17:14:36.960Z,101541.94
2023-11-15T17:17:05.634Z,101543.31
2023-11-15T17:19:32.697Z,101533.00
2023-11-15T17:22:00.065Z,101550.03
2023-11-15T17:24:27.468Z,101541.22
2023-11-15T17:26:54.770Z,101540.03
2023-11-15T17:29:21.944Z,101554.22
2023-11-15T17:31:49.003Z,101556.78
2023-11-15T17:34:16.104Z,101555.59
2023-11-15T17:36:44.077Z,101557.94
2023-11-15T17:39:15.123Z,101553.84
2023-11-15T17:41:45.339Z,101556.69
2023-11-15T17:44:15.935Z,101561.72
2023-11-15T17:46:43.703Z,101561.16
2023-11-15T17:49:12.235Z,101552.50
2023-11-15T17:51:39.618Z,101565.53
2023-11-15T17:54:11.106Z,101566.28
2023-11-15T17:56:38.315Z,101565.69
2023-11-15T17:59:05.793Z,101562.63
2023-11-15T18:01:39.461Z,101554.31
2023-11-15T18:04:10.696Z,101549.22
2023-11-15T18:06:38.663Z,101547.09
2023-11-15T18:09:08.214Z,101551.91
2023-11-15T18:11:36.294Z,101551.88
2023-11-15T18:14:03.490Z,101563.28
2023-11-15T18:16:31.650Z,101564.13
2023-11-15T18:19:08.657Z,101561.63
2023-11-15T18:21:38.959Z,101564.91
2023-11-15T18:24:07.315Z,101566.22
2023-11-15T18:26:36.806Z,101560.25
2023-11-15T18:29:05.158Z,101566.03
2023-11-15T18:31:32.302Z,101572.31
2023-11-15T18:33:59.642Z,101565.09
2023-11-15T18:36:26.962Z,101572.00
2023-11-15T18:38:54.193Z,101569.88
2023-11-15T18:41:21.440Z,101564.25
2023-11-15T18:43:50.185Z,101575.84
2023-11-15T18:46:17.499Z,101576.13
2023-11-15T18:48:44.628Z,101565.78
2023-11-15T18:51:12.778Z,101562.97
2023-11-15T18:53:40.664Z,101566.84
2023-11-15T18:56:08.493Z,101568.69
2023-11-15T18:58:36.970Z,101567.88
2023-11-15T19:01:04.670Z,101572.97
2023-11-15T19:03:31.906Z,101579.28
2023-11-15T19:05:59.532Z,101576.00
2023-11-15T19:08:26.734Z,101574.97
2023-11-15T19:10:55.457Z,101580.88
2023-11-15T19:13:28.125Z,101580.63
2023-11-15T19:15:57.550Z,101575.47
2023-11-15T19:18:38.476Z,101576.81
2023-11-15T19:21:05.785Z,101592.28
2023-11-15T19:23:33.126Z,101587.81
2023-11-15T19:26:00.210Z,101583.84
2023-11-15T19:28:27.286Z,101580.44
2023-11-15T19:30:54.877Z,101582.72
2023-11-15T19:33:22.624Z,101578.06
2023-11-15T19:35:49.852Z,101577.44
2023-11-15T19:38:17.666Z,101573.81
2023-11-15T19:40:45.728Z,101571.81
2023-11-15T19:43:12.885Z,101573.16
2023-11-15T19:45:40.221Z,101565.53
2023-11-15T19:48:07.544Z,101568.84
2023-11-15T19:50:34.965Z,101571.47
2023-11-15T19:53:08.258Z,101559.56
2023-11-15T19:55:36.616Z,101566.19
2023-11-15T19:58:05.839Z,101562.44
2023-11-15T20:00:34.335Z,101568.50
2023-11-15T20:03:01.648Z,101574.44
2023-11-15T20:05:28.862Z,101574.13
2023-11-15T20:07:56.616Z,101570.84
2023-11-15T20:10:25.692Z,101567.75
2023-11-15T20:12:53.708Z,101572.44
2023-11-15T20:15:42.558Z,101565.22
2023-11-15T20:18:10.524Z,101573.50
2023-11-15T20:20:38.151Z,101571.16
2023-11-15T20:23:05.208Z,101569.25
2023-11-15T20:25:32.277Z,101561.69
2023-11-15T20:27:59.276Z,101564.78
2023-11-15T20:30:27.022Z,101561.31
2023-11-15T20:32:56.361Z,101564.44
2023-11-15T20:35:23.986Z,101562.97
2023-11-15T20:37:51.198Z,101571.69
2023-11-15T20:40:18.678Z,101567.47
2023-11-15T20:42:48.051Z,101559.56
2023-11-15T20:45:15.789Z,101564.97
2023-11-15T20:47:43.026Z,101575.44
2023-11-15T20:50:10.620Z,101563.47
2023-11-15T20:52:37.903Z,101562.00
2023-11-15T20:55:08.817Z,101568.13
2023-11-15T20:57:39.855Z,101559.88
2023-11-15T21:00:17.544Z,101564.47
2023-11-15T21:02:44.665Z,101555.72
2023-11-15T21:05:12.848Z,101561.03
2023-11-15T21:07:40.207Z,101557.91
2023-11-15T21:10:11.501Z,101552.41
2023-11-15T21:12:40.732Z,101554.09
2023-11-15T21:15:10.888Z,101560.84
2023-11-15T21:17:38.812Z,101564.50
2023-11-15T21:20:11.689Z,101555.16
2023-11-15T21:22:44.041Z,101566.97
2023-11-15T21:25:14.278Z,101558.25
2023-11-15T21:27:43.251Z,101573.00
2023-11-15T21:30:12.917Z,101568.13
2023-11-15T21:32:41.834Z,101572.47
2023-11-15T21:35:13.287Z,101575.56
2023-11-15T21:37:42.306Z,101572.84
2023-11-15T21:40:12.386Z,101580.41
2023-11-15T21:42:45.805Z,101587.13
2023-11-15T21:45:14.890Z,101586.75
2023-11-15T21:47:43.700Z,101596.75
2023-11-15T21:50:16.054Z,101590.53
2023-11-15T21:52:44.641Z,101582.78
2023-11-15T21:55:12.203Z,101581.47
2023-11-15T21:57:39.708Z,101583.13
2023-11-15T22:00:08.122Z,101584.81
2023-11-15T22:02:36.860Z,101582.53
2023-11-15T22:05:05.138Z,101571.53
2023-11-15T22:07:32.115Z,101570.72
2023-11-15T22:10:10.649Z,101568.88
2023-11-15T22:12:38.107Z,101577.03
2023-11-15T22:15:06.970Z,101572.19
2023-11-15T22:17:34.166Z,101572.31
2023-11-15T22:20:01.109Z,101560.84
2023-11-15T22:22:28.067Z,101555.38
2023-11-15T22:24:55.070Z,101561.72
2023-11-15T22:27:22.385Z,101552.22
2023-11-15T22:29:50.169Z,101548.06
2023-11-15T22:32:19.127Z,101557.97
2023-11-15T22:34:46.312Z,101557.16
2023-11-15T22:37:13.309Z,101547.59
2023-11-15T22:39:40.412Z,101551.28
2023-11-15T22:42:08.064Z,101553.06
2023-11-15T22:44:35.109Z,101550.47
2023-11-15T22:47:02.108Z,101544.97
2023-11-15T22:49:29.171Z,101545.53
2023-11-15T22:51:56.288Z,101548.59
2023-11-15T22:54:23.426Z,101546.59
2023-11-15T22:56:50.476Z,101549.28
2023-11-15T22:59:17.434Z,101551.88
2023-11-15T23:01:45.055Z,101555.72
2023-11-15T23:04:16.306Z,101549.16
2023-11-15T23:06:55.436Z,101551.41
2023-11-15T23:09:22.700Z,101553.34
2023-11-15T23:11:49.849Z,101556.06
2023-11-15T23:14:16.898Z,101539.47
2023-11-15T23:16:45.079Z,101553.09
2023-11-15T23:19:12.242Z,101552.63
2023-11-15T23:21:45.516Z,101549.91
2023-11-15T23:24:14.999Z,101553.16
2023-11-15T23:26:43.041Z,101561.28
2023-11-15T23:29:11.370Z,101556.91
2023-11-15T23:31:38.505Z,101542.63
2023-11-15T23:34:05.610Z,101549.81
2023-11-15T23:36:32.820Z,101547.53
2023-11-15T23:38:59.885Z,101553.78
2023-11-15T23:41:29.568Z,101544.13
2023-11-15T23:43:56.733Z,101550.69
2023-11-15T23:46:25.010Z,101548.28
2023-11-15T23:48:52.155Z,101546.72
2023-11-15T23:51:20.941Z,101547.31
2023-11-15T23:53:47.991Z,101542.88
2023-11-15T23:56:15.595Z,101539.19
2023-11-15T23:58:42.871Z,101541.22
